Time;durP1;ratioP1;P1;durP2;ratioP2;P2;SDS_P1;SDS_P2;PMS_P1;PMS_P2;Temp;Humidity;BMP_temperature;BMP_pressure;BME280_temperature;BME280_humidity;BME280_pressure;Samples;Min_cycle;Max_cycle;Signal;HPM_P1;HPM_P2
2023/12/23 08:30:21;;;;;;;7.18;3.60;;;;;;;;;;5834845;24;20090;31
2023/12/23 08:44:20;;;;;;;6.53;3.70;;;;;;;;;;4759807;30;20040;-85
2023/12/23 08:50:24;;;;;;;6.05;3.00;;;;;;;;;;4843394;24;20723;-83
2023/12/23 09:05:57;;;;;;;10.35;4.40;;;;;;;;;;4812234;29;20059;-86
2023/12/23 09:09:03;;;;;;;8.30;3.63;;;;;;;;;;4804218;29;20046;-86
2023/12/23 09:11:42;;;;;;;6.57;4.55;;;;;;;;;;4802444;29;20508;-85
2023/12/23 09:14:36;;;;;;;3.58;2.67;;;;;;;;;;4799268;29;20137;-86
2023/12/23 14:37:57;;;;;;;1.02;0.50;;;;;;;;;;4842536;24;20052;-86
2023/12/23 14:40:28;;;;;;;3.17;1.60;;;;;;;;;;4799573;29;20054;-85
2023/12/23 15:26:23;;;;;;;1.08;0.70;;;;;;;;;;4800221;29;20057;-80
2023/12/23 15:29:18;;;;;;;2.60;1.13;;;;;;;;;;4801013;29;20043;-82
2023/12/23 15:32:34;;;;;;;3.22;1.83;;;;;;;;;;4770246;30;20044;-81
2023/12/23 16:43:58;;;;;;;;;;;;;;;;;;;;;
2023/12/23 16:47:00;;;;;;;6.80;2.63;;;;;;;;;;4809435;29;20049;-83
2023/12/23 16:49:47;;;;;;;3.92;2.15;;;;;;;;;;4784793;29;20821;-83
2023/12/23 16:52:27;;;;;;;2.63;1.02;;;;;;;;;;4766043;30;20043;-83
2023/12/23 16:58:19;;;;;;;;;;;;;;;;;;;;;
2023/12/23 17:00:54;;;;;;;6.05;2.08;;;;;;;;;;4762778;30;20057;-82
2023/12/23 17:03:29;;;;;;;8.20;1.17;;;;;;;;;;4750638;30;20127;-83
2023/12/23 17:55:31;;;;;;;10.43;4.38;;;;;;;;;;3751340;24;22551;-82
2023/12/23 18:32:29;;;;;;;;;;;;;;;;;;;;;
2023/12/23 19:11:32;;;;;;;6.68;1.70;;;;;;;;;;4785103;29;20077;-84
2023/12/23 19:13:58;;;;;;;7.28;2.60;;;;;;;;;;4782550;29;20040;-83
2023/12/23 19:16:24;;;;;;;6.68;3.30;;;;;;;;;;4784652;30;20460;-83
2023/12/23 19:18:50;;;;;;;4.07;2.63;;;;;;;;;;4783043;30;20050;-84
2023/12/23 19:21:16;;;;;;;4.45;2.85;;;;;;;;;;4786955;29;20048;-84
2023/12/23 19:23:48;;;;;;;3.47;2.38;;;;;;;;;;4777071;29;20039;-84
2023/12/23 19:26:27;;;;;;;9.57;3.15;;;;;;;;;;4761931;30;20055;-84
2023/12/23 19:33:12;;;;;;;;;;;;;;;;;;;;;
2023/12/23 19:38:53;;;;;;;;;;;;;;;;;;4694248;30;20132;-85
2023/12/23 19:41:20;;;;;;;6.47;4.18;;;;;;;;;;4692184;30;20021;-86
2023/12/23 19:43:51;;;;;;;4.97;2.08;;;;;;;;;;4683369;30;20069;-86
2023/12/23 19:46:22;;;;;;;8.20;2.57;;;;;;;;;;4787991;29;20043;-85
2023/12/23 19:48:51;;;;;;;2.72;1.83;;;;;;;;;;4785617;29;20515;-85
2023/12/23 19:51:18;;;;;;;5.40;3.30;;;;;;;;;;4780068;30;20046;-85
2023/12/23 19:57:07;;;;;;;5.97;3.67;;;;;;;;;;4728928;30;20095;-84
2023/12/23 19:59:51;;;;;;;6.93;4.30;;;;;;;;;;4739353;30;20046;-85
2023/12/23 20:02:17;;;;;;;8.00;4.10;;;;;;;;;;4776677;30;20135;-83
2023/12/23 20:04:46;;;;;;;5.60;2.53;;;;;;;;;;4779129;29;20043;-84
2023/12/23 20:07:18;;;;;;;11.07;4.03;;;;;;;;;;4778663;30;20534;-83
2023/12/23 20:09:47;;;;;;;8.02;4.70;;;;;;;;;;4784366;29;20047;-83
2023/12/23 20:12:13;;;;;;;9.07;4.93;;;;;;;;;;4793966;29;20138;-84
2023/12/23 20:14:39;;;;;;;8.35;3.83;;;;;;;;;;4794065;29;20535;-83
2023/12/23 20:17:06;;;;;;;10.82;5.90;;;;;;;;;;4789815;29;20052;-83
2023/12/23 20:19:31;;;;;;;9.63;4.68;;;;;;;;;;4786275;30;20055;-83
2023/12/23 20:21:58;;;;;;;20.38;5.32;;;;;;;;;;4787402;30;20590;-82
2023/12/23 20:24:30;;;;;;;6.45;4.88;;;;;;;;;;4788525;30;20125;-83
2023/12/23 20:27:06;;;;;;;9.63;4.72;;;;;;;;;;4773581;30;20058;-84
2023/12/23 20:29:32;;;;;;;19.88;7.32;;;;;;;;;;4800243;29;20482;-84
2023/12/23 20:32:01;;;;;;;11.50;6.70;;;;;;;;;;4790511;29;20051;-84
2023/12/23 20:34:32;;;;;;;10.35;5.30;;;;;;;;;;4788321;30;20138;-84
2023/12/23 20:37:08;;;;;;;13.77;6.75;;;;;;;;;;4788491;30;20050;-84
2023/12/23 20:39:36;;;;;;;14.00;8.85;;;;;;;;;;4797572;29;20039;-83
2023/12/23 20:42:03;;;;;;;10.90;6.97;;;;;;;;;;4795485;29;20039;-85
2023/12/23 20:44:30;;;;;;;14.93;6.72;;;;;;;;;;4787635;29;20386;-84
2023/12/23 20:46:57;;;;;;;14.40;4.85;;;;;;;;;;4786578;30;20081;-84
2023/12/23 20:49:23;;;;;;;9.63;5.00;;;;;;;;;;4792768;29;20039;-84
2023/12/23 20:51:49;;;;;;;10.40;5.93;;;;;;;;;;4785650;30;20138;-84
2023/12/23 20:54:15;;;;;;;10.98;5.22;;;;;;;;;;4786643;29;20479;-83
2023/12/23 20:56:41;;;;;;;7.80;3.83;;;;;;;;;;4783353;30;20055;-84
2023/12/23 20:59:07;;;;;;;8.10;5.03;;;;;;;;;;4770147;29;20085;-83
2023/12/23 21:01:33;;;;;;;7.38;3.22;;;;;;;;;;4787047;30;20131;-84
2023/12/23 21:04:00;;;;;;;4.05;2.72;;;;;;;;;;4786329;30;20050;-84
2023/12/23 21:06:26;;;;;;;4.10;2.42;;;;;;;;;;4781488;30;20982;-84
2023/12/23 21:08:52;;;;;;;8.70;2.40;;;;;;;;;;4780665;30;20143;-83
2023/12/23 21:11:19;;;;;;;4.90;2.58;;;;;;;;;;4787294;30;20058;-84
2023/12/23 21:13:45;;;;;;;4.10;2.45;;;;;;;;;;4791227;29;20039;-84
2023/12/23 21:16:11;;;;;;;2.88;1.55;;;;;;;;;;4785906;29;20656;-83
2023/12/23 21:18:41;;;;;;;4.18;1.80;;;;;;;;;;4791597;29;20047;-84
2023/12/23 21:21:07;;;;;;;2.35;1.30;;;;;;;;;;4786706;29;20441;-84
2023/12/23 21:23:33;;;;;;;3.50;1.45;;;;;;;;;;4796609;29;20063;-84
2023/12/23 21:25:59;;;;;;;5.13;1.27;;;;;;;;;;4779860;29;20082;-84
2023/12/23 21:28:26;;;;;;;4.60;1.75;;;;;;;;;;4784715;29;20131;-84
2023/12/23 21:30:52;;;;;;;7.00;1.92;;;;;;;;;;4786738;29;20056;-84
2023/12/23 21:33:18;;;;;;;2.00;1.10;;;;;;;;;;4790014;29;20046;-83
2023/12/23 21:35:48;;;;;;;7.82;2.47;;;;;;;;;;4791044;29;20064;-83
2023/12/23 21:38:20;;;;;;;4.55;3.00;;;;;;;;;;4784633;30;20154;-84
2023/12/23 21:40:46;;;;;;;7.60;3.38;;;;;;;;;;4792696;29;20047;-84
2023/12/23 21:43:12;;;;;;;6.72;2.22;;;;;;;;;;4795632;29;20042;-84
2023/12/23 21:45:38;;;;;;;7.45;3.08;;;;;;;;;;4786061;29;20067;-84
2023/12/23 21:48:04;;;;;;;5.80;1.73;;;;;;;;;;4777200;29;20051;-84
2023/12/23 21:50:32;;;;;;;4.47;2.40;;;;;;;;;;4785156;29;20051;-83
2023/12/23 21:52:58;;;;;;;13.07;3.95;;;;;;;;;;4784251;30;20162;-84
2023/12/23 21:55:25;;;;;;;4.25;2.60;;;;;;;;;;4783747;29;20047;-83
2023/12/23 21:57:51;;;;;;;5.60;2.80;;;;;;;;;;4784682;30;20039;-84
2023/12/23 22:00:17;;;;;;;11.48;2.15;;;;;;;;;;4782254;29;20046;-83
2023/12/23 22:02:43;;;;;;;4.72;1.88;;;;;;;;;;4787766;29;20039;-83
2023/12/23 22:05:09;;;;;;;3.13;1.83;;;;;;;;;;4785557;29;20490;-83
2023/12/23 22:07:35;;;;;;;2.85;1.58;;;;;;;;;;4785917;30;20477;-83
2023/12/23 22:10:01;;;;;;;1.30;0.98;;;;;;;;;;4786336;29;20043;-83
2023/12/23 22:12:28;;;;;;;2.75;0.93;;;;;;;;;;4798969;29;20514;-84
2023/12/23 22:14:55;;;;;;;1.92;1.08;;;;;;;;;;4775131;30;20047;-83
2023/12/23 22:17:21;;;;;;;4.50;1.50;;;;;;;;;;4787202;29;20122;-83
2023/12/23 22:19:47;;;;;;;3.53;1.30;;;;;;;;;;4797128;29;20126;-83
2023/12/23 22:22:13;;;;;;;2.13;0.98;;;;;;;;;;4787023;29;20106;-83
2023/12/23 22:24:40;;;;;;;13.60;1.50;;;;;;;;;;4791301;29;20108;-83
2023/12/23 22:27:06;;;;;;;4.20;1.08;;;;;;;;;;4786663;29;20042;-83
2023/12/23 22:29:32;;;;;;;0.40;0.40;;;;;;;;;;4783645;30;20055;-83
2023/12/23 22:31:58;;;;;;;1.95;1.13;;;;;;;;;;4783824;30;20134;-83
2023/12/23 22:34:24;;;;;;;1.83;0.75;;;;;;;;;;4790898;29;20295;-83
2023/12/23 22:36:55;;;;;;;1.70;0.52;;;;;;;;;;4784277;29;20078;-83
2023/12/23 22:39:21;;;;;;;2.05;1.27;;;;;;;;;;4798530;29;20036;-83
2023/12/23 22:41:47;;;;;;;2.65;0.98;;;;;;;;;;4782504;30;20058;-84
2023/12/23 22:44:13;;;;;;;2.25;0.82;;;;;;;;;;4775991;30;20047;-84
2023/12/23 22:46:39;;;;;;;4.97;1.23;;;;;;;;;;4769153;30;20151;-83
2023/12/23 22:49:05;;;;;;;1.67;0.70;;;;;;;;;;4787790;29;20431;-84
2023/12/23 22:51:31;;;;;;;2.17;1.50;;;;;;;;;;4779587;29;20055;-84
2023/12/23 22:53:57;;;;;;;3.30;1.00;;;;;;;;;;4782368;29;20054;-83
2023/12/23 22:56:24;;;;;;;1.83;1.05;;;;;;;;;;4785595;29;20040;-83
2023/12/23 22:58:50;;;;;;;27.35;2.08;;;;;;;;;;4783708;30;20047;-84
2023/12/23 23:01:16;;;;;;;2.17;1.15;;;;;;;;;;4786830;29;20402;-83
2023/12/23 23:03:43;;;;;;;2.15;1.25;;;;;;;;;;4797248;29;20094;-83
2023/12/23 23:06:09;;;;;;;1.50;1.00;;;;;;;;;;4783078;30;20047;-84
2023/12/23 23:08:35;;;;;;;1.63;1.17;;;;;;;;;;4770517;30;20059;-84
2023/12/23 23:11:01;;;;;;;4.00;1.17;;;;;;;;;;4783724;30;20063;-84
2023/12/23 23:13:27;;;;;;;4.50;1.08;;;;;;;;;;4792675;29;20050;-84
2023/12/23 23:15:53;;;;;;;3.35;1.33;;;;;;;;;;4790488;29;20073;-84
2023/12/23 23:18:19;;;;;;;3.10;1.67;;;;;;;;;;4784611;30;20083;-83
2023/12/23 23:20:46;;;;;;;5.63;2.00;;;;;;;;;;4784816;29;20096;-83
2023/12/23 23:23:12;;;;;;;3.28;1.13;;;;;;;;;;4769320;30;20134;-84
2023/12/23 23:25:38;;;;;;;2.10;1.02;;;;;;;;;;4782722;30;20185;-84
2023/12/23 23:28:04;;;;;;;2.55;1.20;;;;;;;;;;4784703;29;20047;-84
2023/12/23 23:30:30;;;;;;;2.75;1.92;;;;;;;;;;4782454;29;20503;-83
2023/12/23 23:32:56;;;;;;;7.72;2.97;;;;;;;;;;4785246;30;20054;-83
2023/12/23 23:35:22;;;;;;;3.55;2.42;;;;;;;;;;4790832;29;20043;-84
2023/12/23 23:37:48;;;;;;;2.72;1.17;;;;;;;;;;4785110;29;20058;-83
2023/12/23 23:40:14;;;;;;;3.20;2.03;;;;;;;;;;4789503;29;20035;-84
2023/12/23 23:42:41;;;;;;;8.35;2.58;;;;;;;;;;4786415;29;20047;-84
2023/12/23 23:45:07;;;;;;;4.85;2.47;;;;;;;;;;4794891;29;20089;-84
2023/12/23 23:47:33;;;;;;;3.95;1.25;;;;;;;;;;4778060;29;20494;-84
2023/12/23 23:50:00;;;;;;;1.67;0.90;;;;;;;;;;4791359;29;20051;-84
2023/12/23 23:52:26;;;;;;;4.40;2.20;;;;;;;;;;4790003;29;20082;-84
2023/12/23 23:54:52;;;;;;;1.80;0.95;;;;;;;;;;4787961;29;20577;-84
2023/12/23 23:57:18;;;;;;;8.50;1.20;;;;;;;;;;4787390;29;20070;-84
2023/12/23 23:59:44;;;;;;;4.45;1.75;;;;;;;;;;4792385;29;20067;-84
